sensor_id;sensor_type;location;lat;lon;timestamp;temperature;humidity
42095;DHT22;27753;55.724;37.612;2022-12-29T00:02:04;0.40;99.90
42095;DHT22;27753;55.724;37.612;2022-12-29T00:04:30;0.40;99.90
42095;DHT22;27753;55.724;37.612;2022-12-29T00:06:56;0.40;99.90
42095;DHT22;27753;55.724;37.612;2022-12-29T00:09:22;0.40;99.90
42095;DHT22;27753;55.724;37.612;2022-12-29T00:11:47;0.40;99.90
42095;DHT22;27753;55.724;37.612;2022-12-29T00:14:15;0.40;99.90
42095;DHT22;27753;55.724;37.612;2022-12-29T00:16:59;0.30;99.90
42095;DHT22;27753;55.724;37.612;2022-12-29T00:19:25;0.30;99.90
42095;DHT22;27753;55.724;37.612;2022-12-29T00:22:11;0.20;99.90
42095;DHT22;27753;55.724;37.612;2022-12-29T00:24:55;0.30;99.90
42095;DHT22;27753;55.724;37.612;2022-12-29T00:27:28;0.30;99.90
42095;DHT22;27753;55.724;37.612;2022-12-29T00:30:17;0.30;99.90
42095;DHT22;27753;55.724;37.612;2022-12-29T00:33:19;0.30;99.90
42095;DHT22;27753;55.724;37.612;2022-12-29T00:36:31;0.30;99.90
42095;DHT22;27753;55.724;37.612;2022-12-29T00:39:03;0.20;99.90
42095;DHT22;27753;55.724;37.612;2022-12-29T00:41:48;0.20;99.90
42095;DHT22;27753;55.724;37.612;2022-12-29T00:44:33;0.20;99.90
42095;DHT22;27753;55.724;37.612;2022-12-29T00:46:59;0.20;99.90
42095;DHT22;27753;55.724;37.612;2022-12-29T00:49:32;0.20;99.90
42095;DHT22;27753;55.724;37.612;2022-12-29T00:52:04;0.30;99.90
42095;DHT22;27753;55.724;37.612;2022-12-29T00:54:33;0.30;99.90
42095;DHT22;27753;55.724;37.612;2022-12-29T00:57:01;0.20;99.90
42095;DHT22;27753;55.724;37.612;2022-12-29T00:59:27;0.30;99.90
42095;DHT22;27753;55.724;37.612;2022-12-29T01:01:54;0.20;99.90
42095;DHT22;27753;55.724;37.612;2022-12-29T01:04:21;0.20;99.90
42095;DHT22;27753;55.724;37.612;2022-12-29T01:06:47;0.20;99.90
42095;DHT22;27753;55.724;37.612;2022-12-29T01:09:13;0.20;99.90
42095;DHT22;27753;55.724;37.612;2022-12-29T01:11:58;0.20;99.90
42095;DHT22;27753;55.724;37.612;2022-12-29T01:14:24;0.20;99.90
42095;DHT22;27753;55.724;37.612;2022-12-29T01:16:50;0.20;99.90
42095;DHT22;27753;55.724;37.612;2022-12-29T01:19:17;0.20;99.90
42095;DHT22;27753;55.724;37.612;2022-12-29T01:21:43;0.10;99.90
42095;DHT22;27753;55.724;37.612;2022-12-29T01:24:09;0.20;99.90
42095;DHT22;27753;55.724;37.612;2022-12-29T01:26:35;0.20;99.90
42095;DHT22;27753;55.724;37.612;2022-12-29T01:29:01;0.20;99.90
42095;DHT22;27753;55.724;37.612;2022-12-29T01:31:27;0.20;99.90
42095;DHT22;27753;55.724;37.612;2022-12-29T01:33:53;0.20;99.90
42095;DHT22;27753;55.724;37.612;2022-12-29T01:36:19;0.20;99.90
42095;DHT22;27753;55.724;37.612;2022-12-29T01:38:45;0.20;99.90
42095;DHT22;27753;55.724;37.612;2022-12-29T01:41:13;0.10;99.90
42095;DHT22;27753;55.724;37.612;2022-12-29T01:43:47;0.10;99.90
42095;DHT22;27753;55.724;37.612;2022-12-29T01:51:24;0.10;99.90
42095;DHT22;27753;55.724;37.612;2022-12-29T01:53:52;0.00;99.90
42095;DHT22;27753;55.724;37.612;2022-12-29T01:56:18;0.00;99.90
42095;DHT22;27753;55.724;37.612;2022-12-29T01:58:48;0.00;99.90
42095;DHT22;27753;55.724;37.612;2022-12-29T02:01:15;0.00;99.90
42095;DHT22;27753;55.724;37.612;2022-12-29T02:03:43;0.00;99.90
42095;DHT22;27753;55.724;37.612;2022-12-29T02:06:21;0.00;99.90
42095;DHT22;27753;55.724;37.612;2022-12-29T02:08:50;0.00;99.90
42095;DHT22;27753;55.724;37.612;2022-12-29T02:11:16;-0.10;99.90
42095;DHT22;27753;55.724;37.612;2022-12-29T02:13:42;-0.10;99.90
42095;DHT22;27753;55.724;37.612;2022-12-29T02:24:51;-0.10;99.90
42095;DHT22;27753;55.724;37.612;2022-12-29T02:30:36;-0.10;99.90
42095;DHT22;27753;55.724;37.612;2022-12-29T02:41:34;-0.20;99.90
42095;DHT22;27753;55.724;37.612;2022-12-29T02:44:39;-0.30;99.90
42095;DHT22;27753;55.724;37.612;2022-12-29T02:50:06;-0.40;99.90
42095;DHT22;27753;55.724;37.612;2022-12-29T02:52:48;-0.40;99.90
42095;DHT22;27753;55.724;37.612;2022-12-29T02:55:15;-0.40;99.90
42095;DHT22;27753;55.724;37.612;2022-12-29T02:57:41;-0.40;99.90
42095;DHT22;27753;55.724;37.612;2022-12-29T03:00:13;-0.50;99.90
42095;DHT22;27753;55.724;37.612;2022-12-29T03:11:12;-0.60;99.90
42095;DHT22;27753;55.724;37.612;2022-12-29T03:17:11;-0.70;99.90
42095;DHT22;27753;55.724;37.612;2022-12-29T03:19:46;-0.80;99.90
42095;DHT22;27753;55.724;37.612;2022-12-29T03:22:21;-0.90;99.90
42095;DHT22;27753;55.724;37.612;2022-12-29T03:25:24;-0.90;99.90
42095;DHT22;27753;55.724;37.612;2022-12-29T03:28:18;-0.90;99.90
42095;DHT22;27753;55.724;37.612;2022-12-29T03:30:46;-1.00;99.90
42095;DHT22;27753;55.724;37.612;2022-12-29T03:33:15;-1.00;99.90
42095;DHT22;27753;55.724;37.612;2022-12-29T03:35:43;-1.00;99.90
42095;DHT22;27753;55.724;37.612;2022-12-29T03:38:17;-1.10;99.90
42095;DHT22;27753;55.724;37.612;2022-12-29T03:40:48;-1.10;99.90
42095;DHT22;27753;55.724;37.612;2022-12-29T03:43:15;-1.10;99.90
42095;DHT22;27753;55.724;37.612;2022-12-29T03:45:42;-1.20;99.90
42095;DHT22;27753;55.724;37.612;2022-12-29T03:48:08;-1.20;99.90
42095;DHT22;27753;55.724;37.612;2022-12-29T03:50:33;-1.20;99.90
42095;DHT22;27753;55.724;37.612;2022-12-29T03:52:59;-1.20;99.90
42095;DHT22;27753;55.724;37.612;2022-12-29T03:55:25;-1.20;99.90
42095;DHT22;27753;55.724;37.612;2022-12-29T03:57:51;-1.10;99.90
42095;DHT22;27753;55.724;37.612;2022-12-29T04:00:17;-1.20;99.90
42095;DHT22;27753;55.724;37.612;2022-12-29T04:02:43;-1.20;99.90
42095;DHT22;27753;55.724;37.612;2022-12-29T04:05:09;-1.30;99.90
42095;DHT22;27753;55.724;37.612;2022-12-29T04:07:35;-1.30;99.90
42095;DHT22;27753;55.724;37.612;2022-12-29T04:10:01;-1.30;99.90
42095;DHT22;27753;55.724;37.612;2022-12-29T04:12:26;-1.30;99.90
42095;DHT22;27753;55.724;37.612;2022-12-29T04:14:52;-1.40;99.90
42095;DHT22;27753;55.724;37.612;2022-12-29T04:17:18;-1.40;99.90
42095;DHT22;27753;55.724;37.612;2022-12-29T04:19:45;-1.40;99.90
42095;DHT22;27753;55.724;37.612;2022-12-29T04:22:11;-1.40;99.90
42095;DHT22;27753;55.724;37.612;2022-12-29T04:24:37;-1.40;99.90
42095;DHT22;27753;55.724;37.612;2022-12-29T04:27:03;-1.30;99.90
42095;DHT22;27753;55.724;37.612;2022-12-29T04:29:29;-1.30;99.90
42095;DHT22;27753;55.724;37.612;2022-12-29T04:31:55;-1.30;99.90
42095;DHT22;27753;55.724;37.612;2022-12-29T04:34:21;-1.40;99.90
42095;DHT22;27753;55.724;37.612;2022-12-29T04:36:47;-1.30;99.90
42095;DHT22;27753;55.724;37.612;2022-12-29T04:39:12;-1.30;99.90
42095;DHT22;27753;55.724;37.612;2022-12-29T04:41:38;-1.30;99.90
42095;DHT22;27753;55.724;37.612;2022-12-29T04:44:04;-1.30;99.90
42095;DHT22;27753;55.724;37.612;2022-12-29T04:46:30;-1.30;99.90
42095;DHT22;27753;55.724;37.612;2022-12-29T04:48:56;-1.30;99.90
42095;DHT22;27753;55.724;37.612;2022-12-29T04:51:22;-1.30;99.90
42095;DHT22;27753;55.724;37.612;2022-12-29T04:53:50;-1.30;99.90
42095;DHT22;27753;55.724;37.612;2022-12-29T04:56:16;-1.30;99.90
42095;DHT22;27753;55.724;37.612;2022-12-29T04:58:42;-1.30;99.90
42095;DHT22;27753;55.724;37.612;2022-12-29T05:01:08;-1.30;99.90
42095;DHT22;27753;55.724;37.612;2022-12-29T05:03:34;-1.30;99.90
42095;DHT22;27753;55.724;37.612;2022-12-29T05:05:59;-1.40;99.90
42095;DHT22;27753;55.724;37.612;2022-12-29T05:08:25;-1.40;99.90
42095;DHT22;27753;55.724;37.612;2022-12-29T05:10:52;-1.40;99.90
42095;DHT22;27753;55.724;37.612;2022-12-29T05:13:18;-1.40;99.90
42095;DHT22;27753;55.724;37.612;2022-12-29T05:15:51;-1.40;99.90
42095;DHT22;27753;55.724;37.612;2022-12-29T05:18:17;-1.40;99.90
42095;DHT22;27753;55.724;37.612;2022-12-29T05:20:43;-1.40;99.90
42095;DHT22;27753;55.724;37.612;2022-12-29T05:23:09;-1.40;99.90
42095;DHT22;27753;55.724;37.612;2022-12-29T05:25:35;-1.40;99.90
42095;DHT22;27753;55.724;37.612;2022-12-29T05:28:05;-1.40;99.90
42095;DHT22;27753;55.724;37.612;2022-12-29T05:30:31;-1.50;99.90
42095;DHT22;27753;55.724;37.612;2022-12-29T05:32:56;-1.50;99.90
42095;DHT22;27753;55.724;37.612;2022-12-29T05:35:22;-1.50;99.90
42095;DHT22;27753;55.724;37.612;2022-12-29T05:37:48;-1.50;99.90
42095;DHT22;27753;55.724;37.612;2022-12-29T05:40:14;-1.60;99.90
42095;DHT22;27753;55.724;37.612;2022-12-29T05:42:40;-1.60;99.90
42095;DHT22;27753;55.724;37.612;2022-12-29T05:45:06;-1.60;99.90
42095;DHT22;27753;55.724;37.612;2022-12-29T05:47:33;-1.60;99.90
42095;DHT22;27753;55.724;37.612;2022-12-29T05:49:58;-1.50;99.90
42095;DHT22;27753;55.724;37.612;2022-12-29T05:52:24;-1.40;99.90
42095;DHT22;27753;55.724;37.612;2022-12-29T05:54:50;-1.40;99.90
42095;DHT22;27753;55.724;37.612;2022-12-29T05:57:16;-1.30;99.90
42095;DHT22;27753;55.724;37.612;2022-12-29T05:59:42;-1.30;99.90
42095;DHT22;27753;55.724;37.612;2022-12-29T06:02:09;-1.40;99.90
42095;DHT22;27753;55.724;37.612;2022-12-29T06:04:35;-1.40;99.90
42095;DHT22;27753;55.724;37.612;2022-12-29T06:07:01;-1.30;99.90
42095;DHT22;27753;55.724;37.612;2022-12-29T06:09:27;-1.30;99.90
42095;DHT22;27753;55.724;37.612;2022-12-29T06:11:52;-1.20;99.90
42095;DHT22;27753;55.724;37.612;2022-12-29T06:14:18;-1.20;99.90
42095;DHT22;27753;55.724;37.612;2022-12-29T06:16:44;-1.20;99.90
42095;DHT22;27753;55.724;37.612;2022-12-29T06:19:10;-1.20;99.90
42095;DHT22;27753;55.724;37.612;2022-12-29T06:21:36;-1.30;99.90
42095;DHT22;27753;55.724;37.612;2022-12-29T06:24:03;-1.30;99.90
42095;DHT22;27753;55.724;37.612;2022-12-29T06:26:29;-1.40;99.90
42095;DHT22;27753;55.724;37.612;2022-12-29T06:28:55;-1.40;99.90
42095;DHT22;27753;55.724;37.612;2022-12-29T06:31:21;-1.50;99.90
42095;DHT22;27753;55.724;37.612;2022-12-29T06:33:47;-1.50;99.90
42095;DHT22;27753;55.724;37.612;2022-12-29T06:36:14;-1.50;99.90
42095;DHT22;27753;55.724;37.612;2022-12-29T06:38:40;-1.50;99.90
42095;DHT22;27753;55.724;37.612;2022-12-29T06:41:06;-1.40;99.90
42095;DHT22;27753;55.724;37.612;2022-12-29T06:43:32;-1.40;99.90
42095;DHT22;27753;55.724;37.612;2022-12-29T06:45:59;-1.40;99.90
42095;DHT22;27753;55.724;37.612;2022-12-29T06:48:25;-1.40;99.90
42095;DHT22;27753;55.724;37.612;2022-12-29T06:50:50;-1.40;99.90
42095;DHT22;27753;55.724;37.612;2022-12-29T06:53:16;-1.30;99.90
42095;DHT22;27753;55.724;37.612;2022-12-29T06:55:42;-1.30;99.90
42095;DHT22;27753;55.724;37.612;2022-12-29T06:58:08;-1.30;99.90
42095;DHT22;27753;55.724;37.612;2022-12-29T07:00:34;-1.30;99.90
42095;DHT22;27753;55.724;37.612;2022-12-29T07:03:00;-1.30;99.90
42095;DHT22;27753;55.724;37.612;2022-12-29T07:05:26;-1.30;99.90
42095;DHT22;27753;55.724;37.612;2022-12-29T07:07:54;-1.30;99.90
42095;DHT22;27753;55.724;37.612;2022-12-29T07:10:20;-1.30;99.90
42095;DHT22;27753;55.724;37.612;2022-12-29T07:12:45;-1.30;99.90
42095;DHT22;27753;55.724;37.612;2022-12-29T07:15:14;-1.30;99.90
42095;DHT22;27753;55.724;37.612;2022-12-29T07:17:40;-1.30;99.90
42095;DHT22;27753;55.724;37.612;2022-12-29T07:20:07;-1.10;99.90
42095;DHT22;27753;55.724;37.612;2022-12-29T07:22:33;-1.10;99.90
42095;DHT22;27753;55.724;37.612;2022-12-29T07:24:59;-1.00;99.90
42095;DHT22;27753;55.724;37.612;2022-12-29T07:27:25;-0.90;99.90
42095;DHT22;27753;55.724;37.612;2022-12-29T07:29:51;-0.90;99.90
42095;DHT22;27753;55.724;37.612;2022-12-29T07:32:17;-0.90;99.90
42095;DHT22;27753;55.724;37.612;2022-12-29T07:34:45;-0.90;99.90
42095;DHT22;27753;55.724;37.612;2022-12-29T07:37:14;-0.80;99.90
42095;DHT22;27753;55.724;37.612;2022-12-29T07:39:40;-0.80;99.90
42095;DHT22;27753;55.724;37.612;2022-12-29T07:42:06;-0.80;99.90
42095;DHT22;27753;55.724;37.612;2022-12-29T07:44:32;-0.70;99.90
42095;DHT22;27753;55.724;37.612;2022-12-29T07:55:14;-0.60;99.90
42095;DHT22;27753;55.724;37.612;2022-12-29T07:57:59;-0.50;99.90
42095;DHT22;27753;55.724;37.612;2022-12-29T08:03:28;-0.40;99.90
42095;DHT22;27753;55.724;37.612;2022-12-29T08:05:54;-0.40;99.90
42095;DHT22;27753;55.724;37.612;2022-12-29T08:13:51;-0.40;99.90
42095;DHT22;27753;55.724;37.612;2022-12-29T08:19:19;-0.50;99.90
42095;DHT22;27753;55.724;37.612;2022-12-29T08:21:45;-0.50;99.90
42095;DHT22;27753;55.724;37.612;2022-12-29T08:24:30;-0.50;99.90
42095;DHT22;27753;55.724;37.612;2022-12-29T08:29:59;-0.70;99.90
42095;DHT22;27753;55.724;37.612;2022-12-29T08:32:44;-0.80;99.90
42095;DHT22;27753;55.724;37.612;2022-12-29T08:35:29;-0.90;99.90
42095;DHT22;27753;55.724;37.612;2022-12-29T08:40:39;-0.80;99.90
42095;DHT22;27753;55.724;37.612;2022-12-29T08:58:02;-0.80;99.90
42095;DHT22;27753;55.724;37.612;2022-12-29T09:00:47;-0.70;99.90
42095;DHT22;27753;55.724;37.612;2022-12-29T09:03:12;-0.60;99.90
42095;DHT22;27753;55.724;37.612;2022-12-29T09:05:57;-0.60;99.90
42095;DHT22;27753;55.724;37.612;2022-12-29T09:11:10;-0.60;99.90
42095;DHT22;27753;55.724;37.612;2022-12-29T09:13:55;-0.70;99.90
42095;DHT22;27753;55.724;37.612;2022-12-29T09:22:29;-0.70;99.90
42095;DHT22;27753;55.724;37.612;2022-12-29T09:25:14;-0.80;99.90
42095;DHT22;27753;55.724;37.612;2022-12-29T09:27:42;-0.70;99.90
42095;DHT22;27753;55.724;37.612;2022-12-29T09:32:54;-0.70;99.90
42095;DHT22;27753;55.724;37.612;2022-12-29T09:38:04;-0.70;99.90
42095;DHT22;27753;55.724;37.612;2022-12-29T09:55:11;-0.70;99.90
42095;DHT22;27753;55.724;37.612;2022-12-29T10:09:52;-0.70;99.90
42095;DHT22;27753;55.724;37.612;2022-12-29T10:12:47;-0.80;99.90
42095;DHT22;27753;55.724;37.612;2022-12-29T10:24:21;-0.80;99.90
42095;DHT22;27753;55.724;37.612;2022-12-29T10:26:48;-0.90;99.90
42095;DHT22;27753;55.724;37.612;2022-12-29T10:29:22;-0.90;99.90
42095;DHT22;27753;55.724;37.612;2022-12-29T10:31:59;-0.80;99.90
42095;DHT22;27753;55.724;37.612;2022-12-29T10:34:48;-0.70;99.90
42095;DHT22;27753;55.724;37.612;2022-12-29T10:37:25;-0.60;99.90
42095;DHT22;27753;55.724;37.612;2022-12-29T10:39:55;-0.60;99.90
42095;DHT22;27753;55.724;37.612;2022-12-29T10:42:28;-0.50;99.90
42095;DHT22;27753;55.724;37.612;2022-12-29T10:48:05;-0.50;99.90
42095;DHT22;27753;55.724;37.612;2022-12-29T11:11:23;-0.30;99.90
42095;DHT22;27753;55.724;37.612;2022-12-29T11:19:40;-0.30;99.90
42095;DHT22;27753;55.724;37.612;2022-12-29T11:22:27;-0.40;99.90
42095;DHT22;27753;55.724;37.612;2022-12-29T11:25:12;-0.40;99.90
42095;DHT22;27753;55.724;37.612;2022-12-29T11:39:36;-0.40;99.90
42095;DHT22;27753;55.724;37.612;2022-12-29T11:42:23;-0.30;99.90
42095;DHT22;27753;55.724;37.612;2022-12-29T11:44:50;-0.30;99.90
42095;DHT22;27753;55.724;37.612;2022-12-29T11:47:41;-0.20;99.90
42095;DHT22;27753;55.724;37.612;2022-12-29T11:50:27;-0.30;99.90
42095;DHT22;27753;55.724;37.612;2022-12-29T11:55:56;-0.30;99.90
42095;DHT22;27753;55.724;37.612;2022-12-29T11:58:37;-0.40;99.90
42095;DHT22;27753;55.724;37.612;2022-12-29T12:04:11;-0.50;99.90
42095;DHT22;27753;55.724;37.612;2022-12-29T12:18:56;-0.50;99.90
42095;DHT22;27753;55.724;37.612;2022-12-29T12:21:42;-0.50;99.90
42095;DHT22;27753;55.724;37.612;2022-12-29T13:30:18;0.00;99.90
42095;DHT22;27753;55.724;37.612;2022-12-29T13:33:11;0.00;99.90
42095;DHT22;27753;55.724;37.612;2022-12-29T13:42:04;0.10;99.90
42095;DHT22;27753;55.724;37.612;2022-12-29T13:44:54;0.10;99.90
42095;DHT22;27753;55.724;37.612;2022-12-29T14:10:51;-0.10;99.90
42095;DHT22;27753;55.724;37.612;2022-12-29T14:16:25;0.00;99.90
42095;DHT22;27753;55.724;37.612;2022-12-29T14:21:58;0.10;99.90
42095;DHT22;27753;55.724;37.612;2022-12-29T14:24:40;0.10;99.90
42095;DHT22;27753;55.724;37.612;2022-12-29T14:33:15;0.20;99.90
42095;DHT22;27753;55.724;37.612;2022-12-29T14:35:44;0.20;99.90
42095;DHT22;27753;55.724;37.612;2022-12-29T14:41:36;0.20;99.90
42095;DHT22;27753;55.724;37.612;2022-12-29T14:44:22;0.20;99.90
42095;DHT22;27753;55.724;37.612;2022-12-29T14:49:43;0.20;99.90
42095;DHT22;27753;55.724;37.612;2022-12-29T14:52:14;0.20;99.90
42095;DHT22;27753;55.724;37.612;2022-12-29T15:00:34;0.20;99.90
42095;DHT22;27753;55.724;37.612;2022-12-29T15:16:40;0.10;99.90
42095;DHT22;27753;55.724;37.612;2022-12-29T15:25:12;0.20;99.90
42095;DHT22;27753;55.724;37.612;2022-12-29T15:28:03;0.10;99.90
42095;DHT22;27753;55.724;37.612;2022-12-29T15:30:30;0.00;99.90
42095;DHT22;27753;55.724;37.612;2022-12-29T15:36:02;0.00;99.90
42095;DHT22;27753;55.724;37.612;2022-12-29T15:38:29;0.00;99.90
42095;DHT22;27753;55.724;37.612;2022-12-29T15:41:15;0.00;99.90
42095;DHT22;27753;55.724;37.612;2022-12-29T15:48:59;0.10;99.90
42095;DHT22;27753;55.724;37.612;2022-12-29T15:54:30;0.10;99.90
42095;DHT22;27753;55.724;37.612;2022-12-29T15:59:46;0.20;99.90
42095;DHT22;27753;55.724;37.612;2022-12-29T16:02:31;0.20;99.90
42095;DHT22;27753;55.724;37.612;2022-12-29T16:05:00;0.20;99.90
42095;DHT22;27753;55.724;37.612;2022-12-29T16:07:32;0.20;99.90
42095;DHT22;27753;55.724;37.612;2022-12-29T16:10:03;0.30;99.90
42095;DHT22;27753;55.724;37.612;2022-12-29T16:12:33;0.30;99.90
42095;DHT22;27753;55.724;37.612;2022-12-29T16:15:18;0.30;99.90
42095;DHT22;27753;55.724;37.612;2022-12-29T16:17:51;0.30;99.90
42095;DHT22;27753;55.724;37.612;2022-12-29T16:20:40;0.30;99.90
42095;DHT22;27753;55.724;37.612;2022-12-29T16:26:03;0.30;99.90
42095;DHT22;27753;55.724;37.612;2022-12-29T16:28:40;0.30;99.90
42095;DHT22;27753;55.724;37.612;2022-12-29T16:34:28;0.30;99.90
42095;DHT22;27753;55.724;37.612;2022-12-29T16:51:33;0.30;99.90
42095;DHT22;27753;55.724;37.612;2022-12-29T16:54:01;0.30;99.90
42095;DHT22;27753;55.724;37.612;2022-12-29T16:56:30;0.30;99.90
42095;DHT22;27753;55.724;37.612;2022-12-29T17:01:44;0.30;99.90
42095;DHT22;27753;55.724;37.612;2022-12-29T17:04:12;0.30;99.90
42095;DHT22;27753;55.724;37.612;2022-12-29T17:06:39;0.30;99.90
42095;DHT22;27753;55.724;37.612;2022-12-29T17:09:19;0.30;99.90
42095;DHT22;27753;55.724;37.612;2022-12-29T17:11:48;0.30;99.90
42095;DHT22;27753;55.724;37.612;2022-12-29T17:20:05;0.30;99.90
42095;DHT22;27753;55.724;37.612;2022-12-29T17:22:56;0.30;99.90
42095;DHT22;27753;55.724;37.612;2022-12-29T17:25:28;0.30;99.90
42095;DHT22;27753;55.724;37.612;2022-12-29T17:31:05;0.30;99.90
42095;DHT22;27753;55.724;37.612;2022-12-29T17:33:40;0.30;99.90
42095;DHT22;27753;55.724;37.612;2022-12-29T17:51:09;0.20;99.90
42095;DHT22;27753;55.724;37.612;2022-12-29T17:56:21;0.20;99.90
42095;DHT22;27753;55.724;37.612;2022-12-29T17:59:09;0.20;99.90
42095;DHT22;27753;55.724;37.612;2022-12-29T18:01:54;0.30;99.90
42095;DHT22;27753;55.724;37.612;2022-12-29T18:04:20;0.30;99.90
42095;DHT22;27753;55.724;37.612;2022-12-29T18:06:46;0.30;99.90
42095;DHT22;27753;55.724;37.612;2022-12-29T18:12:38;0.40;99.90
42095;DHT22;27753;55.724;37.612;2022-12-29T18:21:20;0.30;99.90
42095;DHT22;27753;55.724;37.612;2022-12-29T18:23:47;0.30;99.90
42095;DHT22;27753;55.724;37.612;2022-12-29T18:29:02;0.30;99.90
42095;DHT22;27753;55.724;37.612;2022-12-29T18:34:15;0.30;99.90
42095;DHT22;27753;55.724;37.612;2022-12-29T18:39:27;0.40;99.90
42095;DHT22;27753;55.724;37.612;2022-12-29T18:41:53;0.30;99.90
42095;DHT22;27753;55.724;37.612;2022-12-29T18:44:19;0.30;99.90
42095;DHT22;27753;55.724;37.612;2022-12-29T18:50:08;0.40;99.90
42095;DHT22;27753;55.724;37.612;2022-12-29T18:55:37;0.40;99.90
42095;DHT22;27753;55.724;37.612;2022-12-29T18:58:21;0.40;99.90
42095;DHT22;27753;55.724;37.612;2022-12-29T19:03:32;0.40;99.90
42095;DHT22;27753;55.724;37.612;2022-12-29T19:05:58;0.40;99.90
42095;DHT22;27753;55.724;37.612;2022-12-29T19:13:54;0.40;99.90
42095;DHT22;27753;55.724;37.612;2022-12-29T19:16:38;0.40;99.90
42095;DHT22;27753;55.724;37.612;2022-12-29T19:19:04;0.40;99.90
42095;DHT22;27753;55.724;37.612;2022-12-29T19:21:30;0.40;99.90
42095;DHT22;27753;55.724;37.612;2022-12-29T19:26:59;0.40;99.90
42095;DHT22;27753;55.724;37.612;2022-12-29T19:29:25;0.40;99.90
42095;DHT22;27753;55.724;37.612;2022-12-29T19:40:24;0.50;99.90
42095;DHT22;27753;55.724;37.612;2022-12-29T19:42:51;0.50;99.90
42095;DHT22;27753;55.724;37.612;2022-12-29T19:45:17;0.40;99.90
42095;DHT22;27753;55.724;37.612;2022-12-29T19:47:43;0.40;99.90
42095;DHT22;27753;55.724;37.612;2022-12-29T19:50:28;0.40;99.90
42095;DHT22;27753;55.724;37.612;2022-12-29T19:55:42;0.40;99.90
42095;DHT22;27753;55.724;37.612;2022-12-29T19:58:08;0.50;99.90
42095;DHT22;27753;55.724;37.612;2022-12-29T20:03:38;0.50;99.90
42095;DHT22;27753;55.724;37.612;2022-12-29T20:09:10;0.50;99.90
42095;DHT22;27753;55.724;37.612;2022-12-29T20:11:36;0.50;99.90
42095;DHT22;27753;55.724;37.612;2022-12-29T20:19:51;0.50;99.90
42095;DHT22;27753;55.724;37.612;2022-12-29T20:22:36;0.50;99.90
42095;DHT22;27753;55.724;37.612;2022-12-29T20:25:20;0.50;99.90
42095;DHT22;27753;55.724;37.612;2022-12-29T20:27:46;0.50;99.90
42095;DHT22;27753;55.724;37.612;2022-12-29T20:30:12;0.50;99.90
42095;DHT22;27753;55.724;37.612;2022-12-29T20:32:56;0.50;99.90
42095;DHT22;27753;55.724;37.612;2022-12-29T20:40:51;0.50;99.90
42095;DHT22;27753;55.724;37.612;2022-12-29T20:46:20;0.50;99.90
42095;DHT22;27753;55.724;37.612;2022-12-29T20:49:05;0.50;99.90
42095;DHT22;27753;55.724;37.612;2022-12-29T20:57:19;0.40;99.90
42095;DHT22;27753;55.724;37.612;2022-12-29T21:02:56;0.40;99.90
42095;DHT22;27753;55.724;37.612;2022-12-29T21:05:40;0.40;99.90
42095;DHT22;27753;55.724;37.612;2022-12-29T21:08:06;0.40;99.90
42095;DHT22;27753;55.724;37.612;2022-12-29T21:10:32;0.40;99.90
42095;DHT22;27753;55.724;37.612;2022-12-29T21:33:07;0.50;99.90
42095;DHT22;27753;55.724;37.612;2022-12-29T21:35:39;0.50;99.90
42095;DHT22;27753;55.724;37.612;2022-12-29T21:38:06;0.50;99.90
42095;DHT22;27753;55.724;37.612;2022-12-29T21:49:42;0.50;99.90
42095;DHT22;27753;55.724;37.612;2022-12-29T21:52:08;0.50;99.90
42095;DHT22;27753;55.724;37.612;2022-12-29T22:06:52;0.40;99.90
42095;DHT22;27753;55.724;37.612;2022-12-29T22:09:38;0.40;99.90
42095;DHT22;27753;55.724;37.612;2022-12-29T22:21:15;0.40;99.90
42095;DHT22;27753;55.724;37.612;2022-12-29T22:24:00;0.50;99.90
42095;DHT22;27753;55.724;37.612;2022-12-29T22:26:45;0.40;99.90
42095;DHT22;27753;55.724;37.612;2022-12-29T22:29:29;0.40;99.90
42095;DHT22;27753;55.724;37.612;2022-12-29T22:34:41;0.40;99.90
42095;DHT22;27753;55.724;37.612;2022-12-29T22:54:49;0.30;99.90
42095;DHT22;27753;55.724;37.612;2022-12-29T22:57:16;0.40;99.90
42095;DHT22;27753;55.724;37.612;2022-12-29T23:02:26;0.40;99.90
42095;DHT22;27753;55.724;37.612;2022-12-29T23:07:56;0.40;99.90
42095;DHT22;27753;55.724;37.612;2022-12-29T23:10:22;0.40;99.90
42095;DHT22;27753;55.724;37.612;2022-12-29T23:12:48;0.40;99.90
42095;DHT22;27753;55.724;37.612;2022-12-29T23:15:33;0.40;99.90
42095;DHT22;27753;55.724;37.612;2022-12-29T23:20:45;0.40;99.90
42095;DHT22;27753;55.724;37.612;2022-12-29T23:26:35;0.40;99.90
42095;DHT22;27753;55.724;37.612;2022-12-29T23:46:20;0.40;99.90
42095;DHT22;27753;55.724;37.612;2022-12-29T23:51:31;0.40;99.90
42095;DHT22;27753;55.724;37.612;2022-12-29T23:53:57;0.40;99.90
42095;DHT22;27753;55.724;37.612;2022-12-29T23:56:41;0.40;99.90
42095;DHT22;27753;55.724;37.612;2022-12-29T23:59:07;0.40;99.90
